sensor_id;sensor_type;location;lat;lon;timestamp;P1;durP1;ratioP1;P2;durP2;ratioP2
74217;SDS011;62579;47.288;18.646;2023-02-22T00:01:08;0.13;;;0.13;;
74217;SDS011;62579;47.288;18.646;2023-02-22T00:03:59;0.33;;;0.33;;
74217;SDS011;62579;47.288;18.646;2023-02-22T00:06:26;0.10;;;0.10;;
74217;SDS011;62579;47.288;18.646;2023-02-22T00:08:52;0.00;;;0.00;;
74217;SDS011;62579;47.288;18.646;2023-02-22T00:11:17;0.00;;;0.00;;
74217;SDS011;62579;47.288;18.646;2023-02-22T00:13:44;0.20;;;0.20;;
74217;SDS011;62579;47.288;18.646;2023-02-22T00:16:14;0.00;;;0.00;;
74217;SDS011;62579;47.288;18.646;2023-02-22T00:18:41;0.00;;;0.00;;
74217;SDS011;62579;47.288;18.646;2023-02-22T00:21:08;0.00;;;0.00;;
74217;SDS011;62579;47.288;18.646;2023-02-22T00:23:35;0.00;;;0.00;;
74217;SDS011;62579;47.288;18.646;2023-02-22T00:26:04;0.00;;;0.00;;
74217;SDS011;62579;47.288;18.646;2023-02-22T00:31:02;0.03;;;0.03;;
74217;SDS011;62579;47.288;18.646;2023-02-22T00:33:30;0.00;;;0.00;;
74217;SDS011;62579;47.288;18.646;2023-02-22T00:35:56;0.00;;;0.00;;
74217;SDS011;62579;47.288;18.646;2023-02-22T00:38:21;0.00;;;0.00;;
74217;SDS011;62579;47.288;18.646;2023-02-22T00:40:47;0.10;;;0.10;;
74217;SDS011;62579;47.288;18.646;2023-02-22T00:43:13;0.00;;;0.00;;
74217;SDS011;62579;47.288;18.646;2023-02-22T00:45:38;0.00;;;0.00;;
74217;SDS011;62579;47.288;18.646;2023-02-22T00:48:04;0.00;;;0.00;;
74217;SDS011;62579;47.288;18.646;2023-02-22T00:50:31;0.15;;;0.15;;
74217;SDS011;62579;47.288;18.646;2023-02-22T00:52:58;0.00;;;0.00;;
74217;SDS011;62579;47.288;18.646;2023-02-22T00:55:26;0.00;;;0.00;;
74217;SDS011;62579;47.288;18.646;2023-02-22T00:57:54;0.00;;;0.00;;
74217;SDS011;62579;47.288;18.646;2023-02-22T01:00:24;0.00;;;0.00;;
74217;SDS011;62579;47.288;18.646;2023-02-22T01:02:51;0.00;;;0.00;;
74217;SDS011;62579;47.288;18.646;2023-02-22T01:05:18;0.30;;;0.30;;
74217;SDS011;62579;47.288;18.646;2023-02-22T01:07:45;0.35;;;0.35;;
74217;SDS011;62579;47.288;18.646;2023-02-22T01:10:11;0.13;;;0.13;;
74217;SDS011;62579;47.288;18.646;2023-02-22T01:12:37;0.53;;;0.53;;
74217;SDS011;62579;47.288;18.646;2023-02-22T01:15:04;0.37;;;0.37;;
74217;SDS011;62579;47.288;18.646;2023-02-22T01:17:34;0.10;;;0.10;;
74217;SDS011;62579;47.288;18.646;2023-02-22T01:20:00;0.00;;;0.00;;
74217;SDS011;62579;47.288;18.646;2023-02-22T01:22:25;0.00;;;0.00;;
74217;SDS011;62579;47.288;18.646;2023-02-22T01:24:52;0.00;;;0.00;;
74217;SDS011;62579;47.288;18.646;2023-02-22T01:27:19;0.10;;;0.10;;
74217;SDS011;62579;47.288;18.646;2023-02-22T01:29:44;0.30;;;0.30;;
74217;SDS011;62579;47.288;18.646;2023-02-22T01:32:12;0.00;;;0.00;;
74217;SDS011;62579;47.288;18.646;2023-02-22T01:34:38;0.00;;;0.00;;
74217;SDS011;62579;47.288;18.646;2023-02-22T01:37:04;0.00;;;0.00;;
74217;SDS011;62579;47.288;18.646;2023-02-22T01:39:30;0.00;;;0.00;;
74217;SDS011;62579;47.288;18.646;2023-02-22T01:41:56;0.10;;;0.10;;
74217;SDS011;62579;47.288;18.646;2023-02-22T01:44:32;0.00;;;0.00;;
74217;SDS011;62579;47.288;18.646;2023-02-22T01:47:00;0.00;;;0.00;;
74217;SDS011;62579;47.288;18.646;2023-02-22T01:49:38;0.00;;;0.00;;
74217;SDS011;62579;47.288;18.646;2023-02-22T01:52:11;2.33;;;0.73;;
74217;SDS011;62579;47.288;18.646;2023-02-22T01:54:41;0.00;;;0.00;;
74217;SDS011;62579;47.288;18.646;2023-02-22T01:59:47;0.10;;;0.10;;
74217;SDS011;62579;47.288;18.646;2023-02-22T02:02:16;0.10;;;0.10;;
74217;SDS011;62579;47.288;18.646;2023-02-22T02:04:43;0.30;;;0.30;;
74217;SDS011;62579;47.288;18.646;2023-02-22T02:07:10;0.00;;;0.00;;
74217;SDS011;62579;47.288;18.646;2023-02-22T02:12:23;0.00;;;0.00;;
74217;SDS011;62579;47.288;18.646;2023-02-22T02:14:51;0.10;;;0.10;;
74217;SDS011;62579;47.288;18.646;2023-02-22T02:17:17;0.00;;;0.00;;
74217;SDS011;62579;47.288;18.646;2023-02-22T02:38:43;0.57;;;0.40;;
74217;SDS011;62579;47.288;18.646;2023-02-22T02:41:28;0.00;;;0.00;;
74217;SDS011;62579;47.288;18.646;2023-02-22T02:46:43;0.00;;;0.00;;
74217;SDS011;62579;47.288;18.646;2023-02-22T02:49:19;0.00;;;0.00;;
74217;SDS011;62579;47.288;18.646;2023-02-22T02:51:51;0.00;;;0.00;;
74217;SDS011;62579;47.288;18.646;2023-02-22T02:54:19;0.00;;;0.00;;
74217;SDS011;62579;47.288;18.646;2023-02-22T02:56:45;2.10;;;1.33;;
74217;SDS011;62579;47.288;18.646;2023-02-22T03:02:07;0.10;;;0.10;;
74217;SDS011;62579;47.288;18.646;2023-02-22T03:10:17;0.00;;;0.00;;
74217;SDS011;62579;47.288;18.646;2023-02-22T03:15:41;0.00;;;0.00;;
74217;SDS011;62579;47.288;18.646;2023-02-22T03:23:55;0.00;;;0.00;;
74217;SDS011;62579;47.288;18.646;2023-02-22T03:26:24;0.00;;;0.00;;
74217;SDS011;62579;47.288;18.646;2023-02-22T03:29:02;0.00;;;0.00;;
74217;SDS011;62579;47.288;18.646;2023-02-22T03:31:32;0.00;;;0.00;;
74217;SDS011;62579;47.288;18.646;2023-02-22T03:34:04;0.20;;;0.20;;
74217;SDS011;62579;47.288;18.646;2023-02-22T03:36:34;0.00;;;0.00;;
74217;SDS011;62579;47.288;18.646;2023-02-22T03:39:06;0.00;;;0.00;;
74217;SDS011;62579;47.288;18.646;2023-02-22T03:41:36;0.13;;;0.13;;
74217;SDS011;62579;47.288;18.646;2023-02-22T03:44:07;0.08;;;0.08;;
74217;SDS011;62579;47.288;18.646;2023-02-22T03:46:36;0.00;;;0.00;;
74217;SDS011;62579;47.288;18.646;2023-02-22T03:49:13;0.00;;;0.00;;
74217;SDS011;62579;47.288;18.646;2023-02-22T03:51:44;0.00;;;0.00;;
74217;SDS011;62579;47.288;18.646;2023-02-22T03:54:10;0.00;;;0.00;;
74217;SDS011;62579;47.288;18.646;2023-02-22T03:56:48;0.00;;;0.00;;
74217;SDS011;62579;47.288;18.646;2023-02-22T03:59:18;0.20;;;0.20;;
74217;SDS011;62579;47.288;18.646;2023-02-22T04:01:50;0.00;;;0.00;;
74217;SDS011;62579;47.288;18.646;2023-02-22T04:04:16;0.00;;;0.00;;
74217;SDS011;62579;47.288;18.646;2023-02-22T04:06:45;0.20;;;0.20;;
74217;SDS011;62579;47.288;18.646;2023-02-22T04:09:11;0.00;;;0.00;;
74217;SDS011;62579;47.288;18.646;2023-02-22T04:11:37;0.00;;;0.00;;
74217;SDS011;62579;47.288;18.646;2023-02-22T04:14:03;0.00;;;0.00;;
74217;SDS011;62579;47.288;18.646;2023-02-22T04:16:29;0.00;;;0.00;;
74217;SDS011;62579;47.288;18.646;2023-02-22T04:18:54;0.00;;;0.00;;
74217;SDS011;62579;47.288;18.646;2023-02-22T04:21:20;0.10;;;0.10;;
74217;SDS011;62579;47.288;18.646;2023-02-22T04:23:45;0.20;;;0.20;;
74217;SDS011;62579;47.288;18.646;2023-02-22T04:26:11;0.03;;;0.03;;
74217;SDS011;62579;47.288;18.646;2023-02-22T04:28:36;0.00;;;0.00;;
74217;SDS011;62579;47.288;18.646;2023-02-22T04:31:02;0.00;;;0.00;;
74217;SDS011;62579;47.288;18.646;2023-02-22T04:33:27;0.20;;;0.20;;
74217;SDS011;62579;47.288;18.646;2023-02-22T04:35:52;0.00;;;0.00;;
74217;SDS011;62579;47.288;18.646;2023-02-22T04:38:18;0.00;;;0.00;;
74217;SDS011;62579;47.288;18.646;2023-02-22T04:40:44;0.00;;;0.00;;
74217;SDS011;62579;47.288;18.646;2023-02-22T04:43:09;0.00;;;0.00;;
74217;SDS011;62579;47.288;18.646;2023-02-22T04:45:34;0.50;;;0.50;;
74217;SDS011;62579;47.288;18.646;2023-02-22T04:48:00;0.00;;;0.00;;
74217;SDS011;62579;47.288;18.646;2023-02-22T04:50:25;0.10;;;0.10;;
74217;SDS011;62579;47.288;18.646;2023-02-22T04:52:52;0.00;;;0.00;;
74217;SDS011;62579;47.288;18.646;2023-02-22T04:55:17;0.23;;;0.23;;
74217;SDS011;62579;47.288;18.646;2023-02-22T04:57:43;0.00;;;0.00;;
74217;SDS011;62579;47.288;18.646;2023-02-22T05:00:08;0.00;;;0.00;;
74217;SDS011;62579;47.288;18.646;2023-02-22T05:02:36;0.00;;;0.00;;
74217;SDS011;62579;47.288;18.646;2023-02-22T05:05:03;0.00;;;0.00;;
74217;SDS011;62579;47.288;18.646;2023-02-22T05:07:29;0.50;;;0.50;;
74217;SDS011;62579;47.288;18.646;2023-02-22T05:09:54;0.00;;;0.00;;
74217;SDS011;62579;47.288;18.646;2023-02-22T05:12:20;0.00;;;0.00;;
74217;SDS011;62579;47.288;18.646;2023-02-22T05:14:45;0.30;;;0.30;;
74217;SDS011;62579;47.288;18.646;2023-02-22T05:17:12;0.00;;;0.00;;
74217;SDS011;62579;47.288;18.646;2023-02-22T05:19:37;0.00;;;0.00;;
74217;SDS011;62579;47.288;18.646;2023-02-22T05:22:03;0.00;;;0.00;;
74217;SDS011;62579;47.288;18.646;2023-02-22T05:24:29;0.00;;;0.00;;
74217;SDS011;62579;47.288;18.646;2023-02-22T05:26:55;0.00;;;0.00;;
74217;SDS011;62579;47.288;18.646;2023-02-22T05:29:20;0.00;;;0.00;;
74217;SDS011;62579;47.288;18.646;2023-02-22T05:31:46;0.10;;;0.10;;
74217;SDS011;62579;47.288;18.646;2023-02-22T05:34:11;2.07;;;0.73;;
74217;SDS011;62579;47.288;18.646;2023-02-22T05:36:38;0.00;;;0.00;;
74217;SDS011;62579;47.288;18.646;2023-02-22T05:39:03;0.00;;;0.00;;
74217;SDS011;62579;47.288;18.646;2023-02-22T05:41:29;0.10;;;0.10;;
74217;SDS011;62579;47.288;18.646;2023-02-22T05:43:54;0.00;;;0.00;;
74217;SDS011;62579;47.288;18.646;2023-02-22T05:46:20;0.10;;;0.10;;
74217;SDS011;62579;47.288;18.646;2023-02-22T05:48:45;0.23;;;0.23;;
74217;SDS011;62579;47.288;18.646;2023-02-22T05:51:10;0.00;;;0.00;;
74217;SDS011;62579;47.288;18.646;2023-02-22T05:53:36;0.97;;;0.87;;
74217;SDS011;62579;47.288;18.646;2023-02-22T05:56:01;0.00;;;0.00;;
74217;SDS011;62579;47.288;18.646;2023-02-22T05:58:28;0.00;;;0.00;;
74217;SDS011;62579;47.288;18.646;2023-02-22T06:00:53;0.17;;;0.17;;
74217;SDS011;62579;47.288;18.646;2023-02-22T06:03:21;0.07;;;0.07;;
74217;SDS011;62579;47.288;18.646;2023-02-22T06:05:47;0.00;;;0.00;;
74217;SDS011;62579;47.288;18.646;2023-02-22T06:08:12;0.00;;;0.00;;
74217;SDS011;62579;47.288;18.646;2023-02-22T06:10:38;0.00;;;0.00;;
74217;SDS011;62579;47.288;18.646;2023-02-22T06:13:03;0.00;;;0.00;;
74217;SDS011;62579;47.288;18.646;2023-02-22T06:15:29;0.33;;;0.20;;
74217;SDS011;62579;47.288;18.646;2023-02-22T06:17:55;0.23;;;0.23;;
74217;SDS011;62579;47.288;18.646;2023-02-22T06:20:23;0.90;;;0.90;;
74217;SDS011;62579;47.288;18.646;2023-02-22T06:22:50;0.00;;;0.00;;
74217;SDS011;62579;47.288;18.646;2023-02-22T06:25:18;0.68;;;0.68;;
74217;SDS011;62579;47.288;18.646;2023-02-22T06:27:46;0.40;;;0.40;;
74217;SDS011;62579;47.288;18.646;2023-02-22T06:30:12;0.50;;;0.50;;
74217;SDS011;62579;47.288;18.646;2023-02-22T06:32:39;0.00;;;0.00;;
74217;SDS011;62579;47.288;18.646;2023-02-22T06:35:05;0.00;;;0.00;;
74217;SDS011;62579;47.288;18.646;2023-02-22T06:37:30;0.00;;;0.00;;
74217;SDS011;62579;47.288;18.646;2023-02-22T06:39:56;0.00;;;0.00;;
74217;SDS011;62579;47.288;18.646;2023-02-22T06:42:21;0.23;;;0.23;;
74217;SDS011;62579;47.288;18.646;2023-02-22T06:44:47;0.00;;;0.00;;
74217;SDS011;62579;47.288;18.646;2023-02-22T06:47:13;0.10;;;0.10;;
74217;SDS011;62579;47.288;18.646;2023-02-22T06:49:38;0.53;;;0.50;;
74217;SDS011;62579;47.288;18.646;2023-02-22T06:52:04;0.00;;;0.00;;
74217;SDS011;62579;47.288;18.646;2023-02-22T06:54:30;0.00;;;0.00;;
74217;SDS011;62579;47.288;18.646;2023-02-22T06:56:56;0.10;;;0.10;;
74217;SDS011;62579;47.288;18.646;2023-02-22T06:59:21;0.20;;;0.20;;
74217;SDS011;62579;47.288;18.646;2023-02-22T07:01:47;0.00;;;0.00;;
74217;SDS011;62579;47.288;18.646;2023-02-22T07:04:13;3.50;;;1.80;;
74217;SDS011;62579;47.288;18.646;2023-02-22T07:06:43;0.07;;;0.07;;
74217;SDS011;62579;47.288;18.646;2023-02-22T07:09:12;0.07;;;0.07;;
74217;SDS011;62579;47.288;18.646;2023-02-22T07:11:38;0.47;;;0.47;;
74217;SDS011;62579;47.288;18.646;2023-02-22T07:14:03;1.83;;;1.73;;
74217;SDS011;62579;47.288;18.646;2023-02-22T07:16:29;0.20;;;0.20;;
74217;SDS011;62579;47.288;18.646;2023-02-22T07:18:54;1.50;;;1.23;;
74217;SDS011;62579;47.288;18.646;2023-02-22T07:21:20;0.00;;;0.00;;
74217;SDS011;62579;47.288;18.646;2023-02-22T07:23:49;0.30;;;0.30;;
74217;SDS011;62579;47.288;18.646;2023-02-22T07:26:16;0.33;;;0.33;;
74217;SDS011;62579;47.288;18.646;2023-02-22T07:28:41;0.60;;;0.50;;
74217;SDS011;62579;47.288;18.646;2023-02-22T07:31:07;0.00;;;0.00;;
74217;SDS011;62579;47.288;18.646;2023-02-22T07:33:32;0.17;;;0.17;;
74217;SDS011;62579;47.288;18.646;2023-02-22T07:35:58;0.27;;;0.27;;
74217;SDS011;62579;47.288;18.646;2023-02-22T07:38:23;0.00;;;0.00;;
74217;SDS011;62579;47.288;18.646;2023-02-22T07:40:49;0.23;;;0.23;;
74217;SDS011;62579;47.288;18.646;2023-02-22T07:45:40;0.00;;;0.00;;
74217;SDS011;62579;47.288;18.646;2023-02-22T07:48:05;0.00;;;0.00;;
74217;SDS011;62579;47.288;18.646;2023-02-22T07:50:31;0.20;;;0.20;;
74217;SDS011;62579;47.288;18.646;2023-02-22T07:52:59;0.00;;;0.00;;
74217;SDS011;62579;47.288;18.646;2023-02-22T07:55:26;0.00;;;0.00;;
74217;SDS011;62579;47.288;18.646;2023-02-22T07:57:54;0.50;;;0.50;;
74217;SDS011;62579;47.288;18.646;2023-02-22T08:00:24;0.10;;;0.10;;
74217;SDS011;62579;47.288;18.646;2023-02-22T08:02:55;0.00;;;0.00;;
74217;SDS011;62579;47.288;18.646;2023-02-22T08:05:22;0.40;;;0.40;;
74217;SDS011;62579;47.288;18.646;2023-02-22T08:10:15;0.03;;;0.03;;
74217;SDS011;62579;47.288;18.646;2023-02-22T08:12:41;0.00;;;0.00;;
74217;SDS011;62579;47.288;18.646;2023-02-22T08:15:08;0.00;;;0.00;;
74217;SDS011;62579;47.288;18.646;2023-02-22T08:17:39;0.00;;;0.00;;
74217;SDS011;62579;47.288;18.646;2023-02-22T08:20:04;0.00;;;0.00;;
74217;SDS011;62579;47.288;18.646;2023-02-22T08:22:30;0.00;;;0.00;;
74217;SDS011;62579;47.288;18.646;2023-02-22T08:24:56;0.20;;;0.20;;
74217;SDS011;62579;47.288;18.646;2023-02-22T08:27:25;0.10;;;0.10;;
74217;SDS011;62579;47.288;18.646;2023-02-22T08:29:52;0.97;;;0.47;;
74217;SDS011;62579;47.288;18.646;2023-02-22T08:32:18;0.00;;;0.00;;
74217;SDS011;62579;47.288;18.646;2023-02-22T08:34:44;0.10;;;0.10;;
74217;SDS011;62579;47.288;18.646;2023-02-22T08:37:10;0.00;;;0.00;;
74217;SDS011;62579;47.288;18.646;2023-02-22T08:39:35;0.00;;;0.00;;
74217;SDS011;62579;47.288;18.646;2023-02-22T08:42:01;0.40;;;0.37;;
74217;SDS011;62579;47.288;18.646;2023-02-22T08:44:26;0.30;;;0.30;;
74217;SDS011;62579;47.288;18.646;2023-02-22T08:46:52;0.87;;;0.70;;
74217;SDS011;62579;47.288;18.646;2023-02-22T08:49:17;0.00;;;0.00;;
74217;SDS011;62579;47.288;18.646;2023-02-22T08:51:44;0.13;;;0.13;;
74217;SDS011;62579;47.288;18.646;2023-02-22T08:54:10;1.43;;;1.33;;
74217;SDS011;62579;47.288;18.646;2023-02-22T08:56:35;1.57;;;1.47;;
74217;SDS011;62579;47.288;18.646;2023-02-22T08:59:03;10.43;;;1.13;;
74217;SDS011;62579;47.288;18.646;2023-02-22T09:01:28;1.67;;;1.20;;
74217;SDS011;62579;47.288;18.646;2023-02-22T09:03:54;4.53;;;3.40;;
74217;SDS011;62579;47.288;18.646;2023-02-22T09:06:20;1.53;;;1.37;;
74217;SDS011;62579;47.288;18.646;2023-02-22T09:08:46;1.13;;;1.07;;
74217;SDS011;62579;47.288;18.646;2023-02-22T09:11:12;2.70;;;2.37;;
74217;SDS011;62579;47.288;18.646;2023-02-22T09:13:37;3.60;;;3.30;;
74217;SDS011;62579;47.288;18.646;2023-02-22T09:16:03;3.43;;;2.60;;
74217;SDS011;62579;47.288;18.646;2023-02-22T09:18:28;1.17;;;0.50;;
74217;SDS011;62579;47.288;18.646;2023-02-22T09:20:54;0.13;;;0.13;;
74217;SDS011;62579;47.288;18.646;2023-02-22T09:23:19;1.70;;;0.50;;
74217;SDS011;62579;47.288;18.646;2023-02-22T09:25:46;0.00;;;0.00;;
74217;SDS011;62579;47.288;18.646;2023-02-22T09:28:12;0.10;;;0.10;;
74217;SDS011;62579;47.288;18.646;2023-02-22T09:30:37;0.80;;;0.80;;
74217;SDS011;62579;47.288;18.646;2023-02-22T09:35:36;2.20;;;2.00;;
74217;SDS011;62579;47.288;18.646;2023-02-22T09:38:06;0.37;;;0.37;;
74217;SDS011;62579;47.288;18.646;2023-02-22T09:40:33;0.20;;;0.20;;
74217;SDS011;62579;47.288;18.646;2023-02-22T09:48:40;0.90;;;0.43;;
74217;SDS011;62579;47.288;18.646;2023-02-22T09:51:22;0.10;;;0.10;;
74217;SDS011;62579;47.288;18.646;2023-02-22T09:53:54;0.83;;;0.83;;
74217;SDS011;62579;47.288;18.646;2023-02-22T09:56:24;0.20;;;0.20;;
74217;SDS011;62579;47.288;18.646;2023-02-22T09:58:53;0.20;;;0.20;;
74217;SDS011;62579;47.288;18.646;2023-02-22T10:02:10;0.10;;;0.10;;
74217;SDS011;62579;47.288;18.646;2023-02-22T10:09:19;0.30;;;0.30;;
74217;SDS011;62579;47.288;18.646;2023-02-22T10:11:57;0.00;;;0.00;;
74217;SDS011;62579;47.288;18.646;2023-02-22T10:26:22;0.20;;;0.20;;
74217;SDS011;62579;47.288;18.646;2023-02-22T10:28:53;0.10;;;0.10;;
74217;SDS011;62579;47.288;18.646;2023-02-22T10:31:24;0.50;;;0.47;;
74217;SDS011;62579;47.288;18.646;2023-02-22T10:33:58;0.00;;;0.00;;
74217;SDS011;62579;47.288;18.646;2023-02-22T10:36:29;0.27;;;0.27;;
74217;SDS011;62579;47.288;18.646;2023-02-22T10:39:12;0.40;;;0.40;;
74217;SDS011;62579;47.288;18.646;2023-02-22T10:41:50;0.70;;;0.67;;
74217;SDS011;62579;47.288;18.646;2023-02-22T10:44:19;0.23;;;0.23;;
74217;SDS011;62579;47.288;18.646;2023-02-22T10:46:44;0.00;;;0.00;;
74217;SDS011;62579;47.288;18.646;2023-02-22T10:49:11;0.03;;;0.03;;
74217;SDS011;62579;47.288;18.646;2023-02-22T10:51:44;0.00;;;0.00;;
74217;SDS011;62579;47.288;18.646;2023-02-22T10:56:51;0.30;;;0.30;;
74217;SDS011;62579;47.288;18.646;2023-02-22T10:59:25;0.00;;;0.00;;
74217;SDS011;62579;47.288;18.646;2023-02-22T11:01:52;0.40;;;0.40;;
74217;SDS011;62579;47.288;18.646;2023-02-22T11:04:27;0.50;;;0.50;;
74217;SDS011;62579;47.288;18.646;2023-02-22T11:07:15;0.03;;;0.03;;
74217;SDS011;62579;47.288;18.646;2023-02-22T11:09:56;0.00;;;0.00;;
74217;SDS011;62579;47.288;18.646;2023-02-22T11:12:30;0.20;;;0.20;;
74217;SDS011;62579;47.288;18.646;2023-02-22T11:20:06;0.20;;;0.20;;
74217;SDS011;62579;47.288;18.646;2023-02-22T11:22:36;0.37;;;0.37;;
74217;SDS011;62579;47.288;18.646;2023-02-22T11:25:05;0.00;;;0.00;;
74217;SDS011;62579;47.288;18.646;2023-02-22T11:30:10;0.00;;;0.00;;
74217;SDS011;62579;47.288;18.646;2023-02-22T11:32:43;0.10;;;0.10;;
74217;SDS011;62579;47.288;18.646;2023-02-22T11:35:18;0.10;;;0.10;;
74217;SDS011;62579;47.288;18.646;2023-02-22T11:40:42;0.00;;;0.00;;
74217;SDS011;62579;47.288;18.646;2023-02-22T11:43:19;0.30;;;0.30;;
74217;SDS011;62579;47.288;18.646;2023-02-22T11:45:58;0.10;;;0.10;;
74217;SDS011;62579;47.288;18.646;2023-02-22T11:48:25;1.60;;;1.00;;
74217;SDS011;62579;47.288;18.646;2023-02-22T11:56:18;0.17;;;0.17;;
74217;SDS011;62579;47.288;18.646;2023-02-22T12:17:35;0.10;;;0.10;;
74217;SDS011;62579;47.288;18.646;2023-02-22T12:20:24;0.10;;;0.10;;
74217;SDS011;62579;47.288;18.646;2023-02-22T12:28:50;0.00;;;0.00;;
74217;SDS011;62579;47.288;18.646;2023-02-22T12:36:52;0.10;;;0.10;;
74217;SDS011;62579;47.288;18.646;2023-02-22T12:41:57;0.10;;;0.10;;
74217;SDS011;62579;47.288;18.646;2023-02-22T12:44:33;0.10;;;0.10;;
74217;SDS011;62579;47.288;18.646;2023-02-22T12:47:00;0.17;;;0.17;;
74217;SDS011;62579;47.288;18.646;2023-02-22T12:52:12;0.00;;;0.00;;
74217;SDS011;62579;47.288;18.646;2023-02-22T13:02:42;0.10;;;0.10;;
74217;SDS011;62579;47.288;18.646;2023-02-22T13:13:07;0.20;;;0.20;;
74217;SDS011;62579;47.288;18.646;2023-02-22T13:15:52;0.40;;;0.20;;
74217;SDS011;62579;47.288;18.646;2023-02-22T13:18:51;0.07;;;0.07;;
74217;SDS011;62579;47.288;18.646;2023-02-22T13:40:37;0.50;;;0.37;;
74217;SDS011;62579;47.288;18.646;2023-02-22T13:51:14;0.00;;;0.00;;
74217;SDS011;62579;47.288;18.646;2023-02-22T13:54:38;0.20;;;0.20;;
74217;SDS011;62579;47.288;18.646;2023-02-22T13:56:47;0.10;;;0.10;;
74217;SDS011;62579;47.288;18.646;2023-02-22T13:59:26;0.00;;;0.00;;
74217;SDS011;62579;47.288;18.646;2023-02-22T14:01:58;0.03;;;0.03;;
74217;SDS011;62579;47.288;18.646;2023-02-22T14:06:59;0.03;;;0.03;;
74217;SDS011;62579;47.288;18.646;2023-02-22T14:12:39;0.00;;;0.00;;
74217;SDS011;62579;47.288;18.646;2023-02-22T14:15:17;0.23;;;0.23;;
74217;SDS011;62579;47.288;18.646;2023-02-22T14:17:49;0.00;;;0.00;;
74217;SDS011;62579;47.288;18.646;2023-02-22T14:20:40;0.00;;;0.00;;
74217;SDS011;62579;47.288;18.646;2023-02-22T14:25:54;0.10;;;0.10;;
74217;SDS011;62579;47.288;18.646;2023-02-22T14:28:41;0.00;;;0.00;;
74217;SDS011;62579;47.288;18.646;2023-02-22T14:31:18;0.27;;;0.27;;
74217;SDS011;62579;47.288;18.646;2023-02-22T14:36:50;0.00;;;0.00;;
74217;SDS011;62579;47.288;18.646;2023-02-22T14:45:32;0.10;;;0.10;;
74217;SDS011;62579;47.288;18.646;2023-02-22T14:50:20;0.37;;;0.37;;
74217;SDS011;62579;47.288;18.646;2023-02-22T14:53:00;0.40;;;0.40;;
74217;SDS011;62579;47.288;18.646;2023-02-22T15:14:11;0.13;;;0.13;;
74217;SDS011;62579;47.288;18.646;2023-02-22T15:16:44;0.00;;;0.00;;
74217;SDS011;62579;47.288;18.646;2023-02-22T15:19:19;1.37;;;1.27;;
74217;SDS011;62579;47.288;18.646;2023-02-22T15:21:50;0.10;;;0.10;;
74217;SDS011;62579;47.288;18.646;2023-02-22T15:24:27;0.10;;;0.10;;
74217;SDS011;62579;47.288;18.646;2023-02-22T15:26:55;0.00;;;0.00;;
74217;SDS011;62579;47.288;18.646;2023-02-22T15:29:42;0.05;;;0.05;;
74217;SDS011;62579;47.288;18.646;2023-02-22T15:32:31;0.07;;;0.07;;
74217;SDS011;62579;47.288;18.646;2023-02-22T15:35:16;0.07;;;0.07;;
74217;SDS011;62579;47.288;18.646;2023-02-22T15:37:44;0.20;;;0.20;;
74217;SDS011;62579;47.288;18.646;2023-02-22T15:40:18;0.00;;;0.00;;
74217;SDS011;62579;47.288;18.646;2023-02-22T15:48:06;0.00;;;0.00;;
74217;SDS011;62579;47.288;18.646;2023-02-22T15:50:35;0.03;;;0.03;;
74217;SDS011;62579;47.288;18.646;2023-02-22T15:53:05;1.90;;;0.30;;
74217;SDS011;62579;47.288;18.646;2023-02-22T15:55:42;0.00;;;0.00;;
74217;SDS011;62579;47.288;18.646;2023-02-22T16:00:40;0.00;;;0.00;;
74217;SDS011;62579;47.288;18.646;2023-02-22T16:03:08;0.20;;;0.20;;
74217;SDS011;62579;47.288;18.646;2023-02-22T16:05:46;0.00;;;0.00;;
74217;SDS011;62579;47.288;18.646;2023-02-22T16:08:16;0.00;;;0.00;;
74217;SDS011;62579;47.288;18.646;2023-02-22T16:10:58;0.20;;;0.20;;
74217;SDS011;62579;47.288;18.646;2023-02-22T16:13:27;0.40;;;0.20;;
74217;SDS011;62579;47.288;18.646;2023-02-22T16:15:57;0.47;;;0.23;;
74217;SDS011;62579;47.288;18.646;2023-02-22T16:18:32;0.47;;;0.30;;
74217;SDS011;62579;47.288;18.646;2023-02-22T16:21:09;1.43;;;0.60;;
74217;SDS011;62579;47.288;18.646;2023-02-22T16:26:20;0.00;;;0.00;;
74217;SDS011;62579;47.288;18.646;2023-02-22T16:28:50;0.22;;;0.22;;
74217;SDS011;62579;47.288;18.646;2023-02-22T16:31:37;0.10;;;0.10;;
74217;SDS011;62579;47.288;18.646;2023-02-22T16:34:07;0.20;;;0.20;;
74217;SDS011;62579;47.288;18.646;2023-02-22T16:36:40;0.13;;;0.13;;
74217;SDS011;62579;47.288;18.646;2023-02-22T16:39:09;0.07;;;0.07;;
74217;SDS011;62579;47.288;18.646;2023-02-22T16:41:59;1.43;;;0.77;;
74217;SDS011;62579;47.288;18.646;2023-02-22T16:44:27;0.33;;;0.30;;
74217;SDS011;62579;47.288;18.646;2023-02-22T16:46:59;0.20;;;0.20;;
74217;SDS011;62579;47.288;18.646;2023-02-22T16:49:25;0.47;;;0.47;;
74217;SDS011;62579;47.288;18.646;2023-02-22T16:54:35;0.53;;;0.53;;
74217;SDS011;62579;47.288;18.646;2023-02-22T16:57:15;1.08;;;0.98;;
74217;SDS011;62579;47.288;18.646;2023-02-22T16:59:43;1.10;;;1.00;;
74217;SDS011;62579;47.288;18.646;2023-02-22T17:02:12;2.50;;;2.00;;
74217;SDS011;62579;47.288;18.646;2023-02-22T17:07:04;4.33;;;3.57;;
74217;SDS011;62579;47.288;18.646;2023-02-22T17:09:33;0.50;;;0.50;;
74217;SDS011;62579;47.288;18.646;2023-02-22T17:11:59;2.47;;;0.60;;
74217;SDS011;62579;47.288;18.646;2023-02-22T17:14:26;0.90;;;0.83;;
74217;SDS011;62579;47.288;18.646;2023-02-22T17:16:55;0.90;;;0.60;;
74217;SDS011;62579;47.288;18.646;2023-02-22T17:19:22;2.17;;;1.40;;
74217;SDS011;62579;47.288;18.646;2023-02-22T17:21:48;1.50;;;1.40;;
74217;SDS011;62579;47.288;18.646;2023-02-22T17:24:18;2.67;;;1.17;;
74217;SDS011;62579;47.288;18.646;2023-02-22T17:26:47;6.70;;;4.17;;
74217;SDS011;62579;47.288;18.646;2023-02-22T17:29:13;2.33;;;2.10;;
74217;SDS011;62579;47.288;18.646;2023-02-22T17:31:39;3.27;;;2.97;;
74217;SDS011;62579;47.288;18.646;2023-02-22T17:34:05;6.63;;;5.90;;
74217;SDS011;62579;47.288;18.646;2023-02-22T17:36:31;2.83;;;2.60;;
74217;SDS011;62579;47.288;18.646;2023-02-22T17:39:00;5.60;;;4.50;;
74217;SDS011;62579;47.288;18.646;2023-02-22T17:41:27;4.00;;;3.70;;
74217;SDS011;62579;47.288;18.646;2023-02-22T17:43:53;4.13;;;2.10;;
74217;SDS011;62579;47.288;18.646;2023-02-22T17:46:22;3.10;;;2.87;;
74217;SDS011;62579;47.288;18.646;2023-02-22T17:48:49;3.03;;;2.78;;
74217;SDS011;62579;47.288;18.646;2023-02-22T17:51:18;3.77;;;3.47;;
74217;SDS011;62579;47.288;18.646;2023-02-22T17:53:45;7.93;;;4.87;;
74217;SDS011;62579;47.288;18.646;2023-02-22T17:56:12;2.57;;;2.37;;
74217;SDS011;62579;47.288;18.646;2023-02-22T17:58:42;2.33;;;1.77;;
74217;SDS011;62579;47.288;18.646;2023-02-22T18:01:17;6.67;;;1.17;;
74217;SDS011;62579;47.288;18.646;2023-02-22T18:03:53;0.60;;;0.60;;
74217;SDS011;62579;47.288;18.646;2023-02-22T18:06:21;2.07;;;1.97;;
74217;SDS011;62579;47.288;18.646;2023-02-22T18:08:47;2.80;;;2.60;;
74217;SDS011;62579;47.288;18.646;2023-02-22T18:11:13;0.87;;;0.87;;
74217;SDS011;62579;47.288;18.646;2023-02-22T18:13:39;0.70;;;0.70;;
74217;SDS011;62579;47.288;18.646;2023-02-22T18:16:08;0.30;;;0.30;;
74217;SDS011;62579;47.288;18.646;2023-02-22T18:18:38;1.23;;;1.17;;
74217;SDS011;62579;47.288;18.646;2023-02-22T18:21:03;1.77;;;1.63;;
74217;SDS011;62579;47.288;18.646;2023-02-22T18:23:30;1.30;;;1.20;;
74217;SDS011;62579;47.288;18.646;2023-02-22T18:25:57;0.73;;;0.40;;
74217;SDS011;62579;47.288;18.646;2023-02-22T18:28:24;2.20;;;2.10;;
74217;SDS011;62579;47.288;18.646;2023-02-22T18:30:49;1.40;;;1.27;;
74217;SDS011;62579;47.288;18.646;2023-02-22T18:33:15;0.50;;;0.50;;